sensor_id;sensor_type;location;lat;lon;timestamp;temperature;humidity
26049;DHT22;13822;51.568;5.086;2024-01-15T04:35:44;1.30;99.90
26049;DHT22;13822;51.568;5.086;2024-01-15T04:41:27;1.10;99.90
26049;DHT22;13822;51.568;5.086;2024-01-15T04:47:28;1.10;99.90
26049;DHT22;13822;51.568;5.086;2024-01-15T04:53:04;1.10;99.90
26049;DHT22;13822;51.568;5.086;2024-01-15T04:58:36;1.10;99.90
26049;DHT22;13822;51.568;5.086;2024-01-15T05:16:06;1.10;99.90
26049;DHT22;13822;51.568;5.086;2024-01-15T05:21:47;1.10;99.90
26049;DHT22;13822;51.568;5.086;2024-01-15T06:06:33;0.90;99.90
26049;DHT22;13822;51.568;5.086;2024-01-15T06:11:35;0.90;99.90
26049;DHT22;13822;51.568;5.086;2024-01-15T06:16:37;0.80;99.90
26049;DHT22;13822;51.568;5.086;2024-01-15T06:21:38;0.80;99.90
26049;DHT22;13822;51.568;5.086;2024-01-15T06:26:40;0.80;99.90
26049;DHT22;13822;51.568;5.086;2024-01-15T06:31:42;0.80;99.90
26049;DHT22;13822;51.568;5.086;2024-01-15T06:36:45;0.80;99.90
26049;DHT22;13822;51.568;5.086;2024-01-15T06:41:47;0.80;99.90
26049;DHT22;13822;51.568;5.086;2024-01-15T06:46:49;0.80;99.90
26049;DHT22;13822;51.568;5.086;2024-01-15T06:51:51;0.80;99.90
26049;DHT22;13822;51.568;5.086;2024-01-15T06:56:53;0.80;99.90
26049;DHT22;13822;51.568;5.086;2024-01-15T07:01:55;0.70;99.90
26049;DHT22;13822;51.568;5.086;2024-01-15T07:06:57;0.70;99.90
26049;DHT22;13822;51.568;5.086;2024-01-15T07:11:59;0.70;99.90
26049;DHT22;13822;51.568;5.086;2024-01-15T07:17:01;0.80;99.90
26049;DHT22;13822;51.568;5.086;2024-01-15T07:22:04;0.70;99.90
26049;DHT22;13822;51.568;5.086;2024-01-15T07:27:06;0.70;99.90
26049;DHT22;13822;51.568;5.086;2024-01-15T07:32:08;0.80;99.90
26049;DHT22;13822;51.568;5.086;2024-01-15T07:37:11;0.70;99.90
26049;DHT22;13822;51.568;5.086;2024-01-15T07:42:13;0.70;99.90
26049;DHT22;13822;51.568;5.086;2024-01-15T07:47:15;0.70;99.90
26049;DHT22;13822;51.568;5.086;2024-01-15T07:52:17;0.80;99.90
26049;DHT22;13822;51.568;5.086;2024-01-15T07:57:19;0.80;99.90
26049;DHT22;13822;51.568;5.086;2024-01-15T08:02:21;0.80;99.90
26049;DHT22;13822;51.568;5.086;2024-01-15T08:07:23;0.80;99.90
26049;DHT22;13822;51.568;5.086;2024-01-15T08:12:25;0.80;99.90
26049;DHT22;13822;51.568;5.086;2024-01-15T08:17:27;0.80;99.90
26049;DHT22;13822;51.568;5.086;2024-01-15T08:22:30;0.70;99.90
26049;DHT22;13822;51.568;5.086;2024-01-15T08:27:32;0.80;99.90
26049;DHT22;13822;51.568;5.086;2024-01-15T08:32:35;0.80;99.90
26049;DHT22;13822;51.568;5.086;2024-01-15T08:37:42;0.70;99.90
26049;DHT22;13822;51.568;5.086;2024-01-15T08:42:44;0.80;99.90
26049;DHT22;13822;51.568;5.086;2024-01-15T08:47:49;0.80;99.90
26049;DHT22;13822;51.568;5.086;2024-01-15T08:52:51;0.80;99.90
26049;DHT22;13822;51.568;5.086;2024-01-15T08:57:53;0.80;99.90
26049;DHT22;13822;51.568;5.086;2024-01-15T09:02:56;0.80;99.90
26049;DHT22;13822;51.568;5.086;2024-01-15T09:08:01;0.80;99.90
26049;DHT22;13822;51.568;5.086;2024-01-15T09:13:03;0.80;99.90
26049;DHT22;13822;51.568;5.086;2024-01-15T09:18:06;0.80;99.90
26049;DHT22;13822;51.568;5.086;2024-01-15T09:23:09;0.80;99.90
26049;DHT22;13822;51.568;5.086;2024-01-15T09:28:11;0.90;99.90
26049;DHT22;13822;51.568;5.086;2024-01-15T09:33:13;0.90;99.90
26049;DHT22;13822;51.568;5.086;2024-01-15T09:38:15;0.90;99.90
26049;DHT22;13822;51.568;5.086;2024-01-15T09:43:17;1.00;99.90
26049;DHT22;13822;51.568;5.086;2024-01-15T09:48:19;1.00;99.90
26049;DHT22;13822;51.568;5.086;2024-01-15T09:53:21;1.00;99.90
26049;DHT22;13822;51.568;5.086;2024-01-15T09:58:23;1.00;99.90
26049;DHT22;13822;51.568;5.086;2024-01-15T10:03:26;1.10;99.90
26049;DHT22;13822;51.568;5.086;2024-01-15T10:08:28;1.20;99.90
26049;DHT22;13822;51.568;5.086;2024-01-15T10:13:30;1.20;99.90
26049;DHT22;13822;51.568;5.086;2024-01-15T10:18:32;1.30;99.90
26049;DHT22;13822;51.568;5.086;2024-01-15T10:23:34;1.30;99.90
26049;DHT22;13822;51.568;5.086;2024-01-15T10:28:37;1.30;99.90
26049;DHT22;13822;51.568;5.086;2024-01-15T10:33:39;1.30;99.90
26049;DHT22;13822;51.568;5.086;2024-01-15T10:38:42;1.40;99.90
26049;DHT22;13822;51.568;5.086;2024-01-15T10:43:44;1.40;99.90
26049;DHT22;13822;51.568;5.086;2024-01-15T10:48:46;1.40;99.90
26049;DHT22;13822;51.568;5.086;2024-01-15T10:53:48;1.40;99.90
26049;DHT22;13822;51.568;5.086;2024-01-15T10:58:50;1.30;99.90
26049;DHT22;13822;51.568;5.086;2024-01-15T11:03:54;1.40;99.90
26049;DHT22;13822;51.568;5.086;2024-01-15T11:08:56;1.40;99.90
26049;DHT22;13822;51.568;5.086;2024-01-15T11:13:58;1.50;99.90
26049;DHT22;13822;51.568;5.086;2024-01-15T11:24:03;1.40;99.90
26049;DHT22;13822;51.568;5.086;2024-01-15T11:40:05;1.20;99.90
26049;DHT22;13822;51.568;5.086;2024-01-15T11:45:12;1.20;99.90
26049;DHT22;13822;51.568;5.086;2024-01-15T11:50:13;1.20;99.90
26049;DHT22;13822;51.568;5.086;2024-01-15T11:55:26;1.20;99.90
26049;DHT22;13822;51.568;5.086;2024-01-15T12:00:32;1.30;99.90
26049;DHT22;13822;51.568;5.086;2024-01-15T12:05:36;1.30;99.90
26049;DHT22;13822;51.568;5.086;2024-01-15T12:10:39;1.30;99.90
26049;DHT22;13822;51.568;5.086;2024-01-15T12:15:45;1.40;99.90
26049;DHT22;13822;51.568;5.086;2024-01-15T12:20:48;1.30;99.90
26049;DHT22;13822;51.568;5.086;2024-01-15T12:25:51;1.30;99.90
26049;DHT22;13822;51.568;5.086;2024-01-15T12:30:53;1.30;99.90
26049;DHT22;13822;51.568;5.086;2024-01-15T12:35:57;1.40;99.90
26049;DHT22;13822;51.568;5.086;2024-01-15T12:41:00;1.40;99.90
26049;DHT22;13822;51.568;5.086;2024-01-15T12:46:02;1.50;99.90
26049;DHT22;13822;51.568;5.086;2024-01-15T12:51:05;1.40;99.90
26049;DHT22;13822;51.568;5.086;2024-01-15T12:56:08;1.30;99.90
26049;DHT22;13822;51.568;5.086;2024-01-15T13:01:10;1.30;99.90
26049;DHT22;13822;51.568;5.086;2024-01-15T13:06:12;1.30;99.90
26049;DHT22;13822;51.568;5.086;2024-01-15T13:11:14;1.30;99.90
26049;DHT22;13822;51.568;5.086;2024-01-15T13:16:16;1.30;99.90
26049;DHT22;13822;51.568;5.086;2024-01-15T13:21:18;1.40;99.90
26049;DHT22;13822;51.568;5.086;2024-01-15T13:26:21;1.50;99.90
26049;DHT22;13822;51.568;5.086;2024-01-15T13:31:23;1.50;99.90
26049;DHT22;13822;51.568;5.086;2024-01-15T13:36:28;1.60;99.90
26049;DHT22;13822;51.568;5.086;2024-01-15T13:41:30;1.70;99.90
26049;DHT22;13822;51.568;5.086;2024-01-15T13:46:32;1.70;99.90
26049;DHT22;13822;51.568;5.086;2024-01-15T13:51:35;1.80;99.90
26049;DHT22;13822;51.568;5.086;2024-01-15T13:56:38;1.80;99.90
26049;DHT22;13822;51.568;5.086;2024-01-15T14:01:40;1.80;99.90
26049;DHT22;13822;51.568;5.086;2024-01-15T14:06:42;1.80;99.90
26049;DHT22;13822;51.568;5.086;2024-01-15T14:11:44;1.70;99.90
26049;DHT22;13822;51.568;5.086;2024-01-15T14:16:46;1.80;99.90
26049;DHT22;13822;51.568;5.086;2024-01-15T14:21:49;1.80;99.90
26049;DHT22;13822;51.568;5.086;2024-01-15T14:26:51;1.90;99.90
26049;DHT22;13822;51.568;5.086;2024-01-15T14:31:53;1.90;99.90
26049;DHT22;13822;51.568;5.086;2024-01-15T14:36:55;1.80;99.90
26049;DHT22;13822;51.568;5.086;2024-01-15T14:41:57;1.80;99.90
26049;DHT22;13822;51.568;5.086;2024-01-15T14:47:00;1.80;99.90
26049;DHT22;13822;51.568;5.086;2024-01-15T14:52:02;1.70;99.90
26049;DHT22;13822;51.568;5.086;2024-01-15T14:57:04;1.80;99.90
26049;DHT22;13822;51.568;5.086;2024-01-15T15:02:06;1.80;99.90
26049;DHT22;13822;51.568;5.086;2024-01-15T15:07:10;1.90;99.90
26049;DHT22;13822;51.568;5.086;2024-01-15T15:12:12;1.90;99.90
26049;DHT22;13822;51.568;5.086;2024-01-15T15:17:15;1.80;99.90
26049;DHT22;13822;51.568;5.086;2024-01-15T15:22:17;1.70;99.90
26049;DHT22;13822;51.568;5.086;2024-01-15T15:27:20;1.60;99.90
26049;DHT22;13822;51.568;5.086;2024-01-15T15:32:22;1.60;99.90
26049;DHT22;13822;51.568;5.086;2024-01-15T15:37:25;1.50;99.90
26049;DHT22;13822;51.568;5.086;2024-01-15T15:42:27;1.40;99.90
26049;DHT22;13822;51.568;5.086;2024-01-15T15:47:29;1.30;99.90
26049;DHT22;13822;51.568;5.086;2024-01-15T15:52:32;1.30;99.90
26049;DHT22;13822;51.568;5.086;2024-01-15T15:57:34;1.20;99.90
26049;DHT22;13822;51.568;5.086;2024-01-15T16:02:36;1.10;99.90
26049;DHT22;13822;51.568;5.086;2024-01-15T16:07:38;1.10;99.90
26049;DHT22;13822;51.568;5.086;2024-01-15T16:12:40;1.10;99.90
26049;DHT22;13822;51.568;5.086;2024-01-15T16:17:43;1.10;99.90
26049;DHT22;13822;51.568;5.086;2024-01-15T16:23:05;1.10;99.90
26049;DHT22;13822;51.568;5.086;2024-01-15T16:28:27;1.10;99.90
26049;DHT22;13822;51.568;5.086;2024-01-15T16:33:28;1.10;99.90
26049;DHT22;13822;51.568;5.086;2024-01-15T16:38:30;1.10;99.90
26049;DHT22;13822;51.568;5.086;2024-01-15T16:43:32;1.10;99.90
26049;DHT22;13822;51.568;5.086;2024-01-15T16:48:34;1.10;99.90
26049;DHT22;13822;51.568;5.086;2024-01-15T16:53:36;1.10;99.90
26049;DHT22;13822;51.568;5.086;2024-01-15T16:58:39;1.10;99.90
26049;DHT22;13822;51.568;5.086;2024-01-15T17:03:41;1.10;99.90
26049;DHT22;13822;51.568;5.086;2024-01-15T17:08:43;1.10;99.90
26049;DHT22;13822;51.568;5.086;2024-01-15T17:13:45;1.10;99.90
26049;DHT22;13822;51.568;5.086;2024-01-15T17:18:47;1.10;99.90
26049;DHT22;13822;51.568;5.086;2024-01-15T17:23:49;1.00;99.90
26049;DHT22;13822;51.568;5.086;2024-01-15T17:28:51;1.00;99.90
26049;DHT22;13822;51.568;5.086;2024-01-15T17:33:53;1.00;99.90
26049;DHT22;13822;51.568;5.086;2024-01-15T17:38:59;0.90;99.90
26049;DHT22;13822;51.568;5.086;2024-01-15T17:44:01;0.90;99.90
26049;DHT22;13822;51.568;5.086;2024-01-15T17:49:03;0.90;99.90
26049;DHT22;13822;51.568;5.086;2024-01-15T17:54:10;0.90;99.90
26049;DHT22;13822;51.568;5.086;2024-01-15T18:24:24;0.80;99.90
26049;DHT22;13822;51.568;5.086;2024-01-15T18:30:09;0.80;99.90
26049;DHT22;13822;51.568;5.086;2024-01-15T18:36:34;0.80;99.90
26049;DHT22;13822;51.568;5.086;2024-01-15T18:42:35;0.90;99.90
26049;DHT22;13822;51.568;5.086;2024-01-15T18:47:37;0.90;99.90
26049;DHT22;13822;51.568;5.086;2024-01-15T18:52:39;0.90;99.90
26049;DHT22;13822;51.568;5.086;2024-01-15T18:57:41;0.90;99.90
26049;DHT22;13822;51.568;5.086;2024-01-15T19:02:43;0.90;99.90
26049;DHT22;13822;51.568;5.086;2024-01-15T19:07:45;1.00;99.90
26049;DHT22;13822;51.568;5.086;2024-01-15T19:12:48;0.90;99.90
26049;DHT22;13822;51.568;5.086;2024-01-15T19:17:50;1.00;99.90
26049;DHT22;13822;51.568;5.086;2024-01-15T19:22:52;0.90;99.90
26049;DHT22;13822;51.568;5.086;2024-01-15T19:27:54;0.90;99.90
26049;DHT22;13822;51.568;5.086;2024-01-15T19:38:59;0.90;99.90
26049;DHT22;13822;51.568;5.086;2024-01-15T20:36:30;0.70;99.90
26049;DHT22;13822;51.568;5.086;2024-01-15T22:07:08;0.80;99.90
